sensor_id;sensor_type;location;lat;lon;timestamp;P1;durP1;ratioP1;P2;durP2;ratioP2
39074;SDS011;24826;52.070;20.970;2023-03-14T00:02:21;12.88;;;6.32;;
39074;SDS011;24826;52.070;20.970;2023-03-14T00:05:05;13.85;;;7.30;;
39074;SDS011;24826;52.070;20.970;2023-03-14T00:07:51;13.00;;;6.82;;
39074;SDS011;24826;52.070;20.970;2023-03-14T00:10:36;13.75;;;6.55;;
39074;SDS011;24826;52.070;20.970;2023-03-14T00:13:22;10.55;;;6.45;;
39074;SDS011;24826;52.070;20.970;2023-03-14T00:16:07;13.57;;;6.93;;
39074;SDS011;24826;52.070;20.970;2023-03-14T00:18:53;12.30;;;6.45;;
39074;SDS011;24826;52.070;20.970;2023-03-14T00:21:38;13.50;;;6.78;;
39074;SDS011;24826;52.070;20.970;2023-03-14T00:24:22;13.77;;;6.00;;
39074;SDS011;24826;52.070;20.970;2023-03-14T00:27:06;14.77;;;6.72;;
39074;SDS011;24826;52.070;20.970;2023-03-14T00:29:51;11.85;;;6.05;;
39074;SDS011;24826;52.070;20.970;2023-03-14T00:32:36;14.88;;;7.32;;
39074;SDS011;24826;52.070;20.970;2023-03-14T00:35:20;11.88;;;5.93;;
39074;SDS011;24826;52.070;20.970;2023-03-14T00:38:05;12.50;;;6.43;;
39074;SDS011;24826;52.070;20.970;2023-03-14T00:40:49;11.63;;;6.40;;
39074;SDS011;24826;52.070;20.970;2023-03-14T00:43:35;13.55;;;6.68;;
39074;SDS011;24826;52.070;20.970;2023-03-14T00:46:20;12.77;;;6.90;;
39074;SDS011;24826;52.070;20.970;2023-03-14T00:49:04;13.82;;;6.97;;
39074;SDS011;24826;52.070;20.970;2023-03-14T00:51:49;11.43;;;6.18;;
39074;SDS011;24826;52.070;20.970;2023-03-14T00:54:35;14.77;;;6.72;;
39074;SDS011;24826;52.070;20.970;2023-03-14T00:57:19;12.48;;;6.25;;
39074;SDS011;24826;52.070;20.970;2023-03-14T01:00:03;11.98;;;6.15;;
39074;SDS011;24826;52.070;20.970;2023-03-14T01:02:50;13.38;;;6.13;;
39074;SDS011;24826;52.070;20.970;2023-03-14T01:05:34;12.45;;;6.32;;
39074;SDS011;24826;52.070;20.970;2023-03-14T01:08:19;11.30;;;5.72;;
39074;SDS011;24826;52.070;20.970;2023-03-14T01:11:10;11.63;;;6.10;;
39074;SDS011;24826;52.070;20.970;2023-03-14T01:13:57;10.90;;;5.68;;
39074;SDS011;24826;52.070;20.970;2023-03-14T01:16:42;12.48;;;5.65;;
39074;SDS011;24826;52.070;20.970;2023-03-14T01:19:27;9.20;;;5.13;;
39074;SDS011;24826;52.070;20.970;2023-03-14T01:22:12;10.43;;;5.63;;
39074;SDS011;24826;52.070;20.970;2023-03-14T01:24:56;11.00;;;5.90;;
39074;SDS011;24826;52.070;20.970;2023-03-14T01:27:41;13.07;;;5.20;;
39074;SDS011;24826;52.070;20.970;2023-03-14T01:30:25;11.93;;;5.78;;
39074;SDS011;24826;52.070;20.970;2023-03-14T01:33:09;11.50;;;6.05;;
39074;SDS011;24826;52.070;20.970;2023-03-14T01:35:56;10.63;;;5.55;;
39074;SDS011;24826;52.070;20.970;2023-03-14T01:38:40;11.02;;;5.85;;
39074;SDS011;24826;52.070;20.970;2023-03-14T01:41:25;14.45;;;5.75;;
39074;SDS011;24826;52.070;20.970;2023-03-14T01:44:10;10.65;;;5.50;;
39074;SDS011;24826;52.070;20.970;2023-03-14T01:46:55;10.65;;;5.47;;
39074;SDS011;24826;52.070;20.970;2023-03-14T01:49:40;13.20;;;6.53;;
39074;SDS011;24826;52.070;20.970;2023-03-14T01:52:27;10.13;;;5.32;;
39074;SDS011;24826;52.070;20.970;2023-03-14T01:55:19;10.80;;;5.55;;
39074;SDS011;24826;52.070;20.970;2023-03-14T01:58:07;11.57;;;5.97;;
39074;SDS011;24826;52.070;20.970;2023-03-14T02:00:53;9.95;;;5.15;;
39074;SDS011;24826;52.070;20.970;2023-03-14T02:03:48;11.75;;;5.53;;
39074;SDS011;24826;52.070;20.970;2023-03-14T02:06:40;11.15;;;5.18;;
39074;SDS011;24826;52.070;20.970;2023-03-14T02:09:30;9.65;;;4.75;;
39074;SDS011;24826;52.070;20.970;2023-03-14T02:12:15;10.88;;;5.47;;
39074;SDS011;24826;52.070;20.970;2023-03-14T02:15:01;11.13;;;5.97;;
39074;SDS011;24826;52.070;20.970;2023-03-14T02:17:45;10.00;;;5.28;;
39074;SDS011;24826;52.070;20.970;2023-03-14T02:23:15;12.75;;;5.72;;
39074;SDS011;24826;52.070;20.970;2023-03-14T02:26:06;10.63;;;5.95;;
39074;SDS011;24826;52.070;20.970;2023-03-14T02:31:39;10.07;;;5.35;;
39074;SDS011;24826;52.070;20.970;2023-03-14T02:34:24;12.85;;;5.75;;
39074;SDS011;24826;52.070;20.970;2023-03-14T02:37:10;11.13;;;5.13;;
39074;SDS011;24826;52.070;20.970;2023-03-14T02:39:55;11.40;;;5.55;;
39074;SDS011;24826;52.070;20.970;2023-03-14T02:42:39;10.02;;;5.07;;
39074;SDS011;24826;52.070;20.970;2023-03-14T02:48:13;10.40;;;5.10;;
39074;SDS011;24826;52.070;20.970;2023-03-14T02:51:01;9.20;;;4.82;;
39074;SDS011;24826;52.070;20.970;2023-03-14T02:53:46;10.77;;;5.00;;
39074;SDS011;24826;52.070;20.970;2023-03-14T02:56:30;9.35;;;4.65;;
39074;SDS011;24826;52.070;20.970;2023-03-14T02:59:14;10.00;;;5.05;;
39074;SDS011;24826;52.070;20.970;2023-03-14T03:01:59;8.98;;;5.28;;
39074;SDS011;24826;52.070;20.970;2023-03-14T03:04:44;10.10;;;4.75;;
39074;SDS011;24826;52.070;20.970;2023-03-14T03:07:28;11.27;;;4.93;;
39074;SDS011;24826;52.070;20.970;2023-03-14T03:10:13;10.00;;;4.70;;
39074;SDS011;24826;52.070;20.970;2023-03-14T03:12:57;8.35;;;4.38;;
39074;SDS011;24826;52.070;20.970;2023-03-14T03:15:42;9.98;;;5.15;;
39074;SDS011;24826;52.070;20.970;2023-03-14T03:18:26;8.18;;;4.05;;
39074;SDS011;24826;52.070;20.970;2023-03-14T03:21:11;8.00;;;3.83;;
39074;SDS011;24826;52.070;20.970;2023-03-14T03:23:56;8.80;;;4.18;;
39074;SDS011;24826;52.070;20.970;2023-03-14T03:26:40;7.57;;;4.15;;
39074;SDS011;24826;52.070;20.970;2023-03-14T03:29:24;10.00;;;4.75;;
39074;SDS011;24826;52.070;20.970;2023-03-14T03:32:08;8.13;;;4.20;;
39074;SDS011;24826;52.070;20.970;2023-03-14T03:34:53;9.43;;;4.55;;
39074;SDS011;24826;52.070;20.970;2023-03-14T03:37:38;11.30;;;4.05;;
39074;SDS011;24826;52.070;20.970;2023-03-14T03:40:22;11.00;;;4.18;;
39074;SDS011;24826;52.070;20.970;2023-03-14T03:43:07;8.70;;;4.13;;
39074;SDS011;24826;52.070;20.970;2023-03-14T03:45:51;10.40;;;4.43;;
39074;SDS011;24826;52.070;20.970;2023-03-14T03:48:35;8.60;;;4.10;;
39074;SDS011;24826;52.070;20.970;2023-03-14T03:51:20;8.68;;;4.97;;
39074;SDS011;24826;52.070;20.970;2023-03-14T03:54:04;9.18;;;4.00;;
39074;SDS011;24826;52.070;20.970;2023-03-14T03:56:49;10.90;;;4.55;;
39074;SDS011;24826;52.070;20.970;2023-03-14T03:59:33;8.88;;;4.35;;
39074;SDS011;24826;52.070;20.970;2023-03-14T04:02:18;8.90;;;4.55;;
39074;SDS011;24826;52.070;20.970;2023-03-14T04:05:03;9.23;;;3.88;;
39074;SDS011;24826;52.070;20.970;2023-03-14T04:07:47;8.55;;;3.67;;
39074;SDS011;24826;52.070;20.970;2023-03-14T04:10:33;6.60;;;3.70;;
39074;SDS011;24826;52.070;20.970;2023-03-14T04:13:18;7.30;;;3.97;;
39074;SDS011;24826;52.070;20.970;2023-03-14T04:16:03;8.80;;;4.13;;
39074;SDS011;24826;52.070;20.970;2023-03-14T04:18:48;7.40;;;4.05;;
39074;SDS011;24826;52.070;20.970;2023-03-14T04:21:32;10.43;;;4.32;;
39074;SDS011;24826;52.070;20.970;2023-03-14T04:24:17;8.25;;;4.15;;
39074;SDS011;24826;52.070;20.970;2023-03-14T04:27:01;9.57;;;4.43;;
39074;SDS011;24826;52.070;20.970;2023-03-14T04:29:45;7.60;;;4.05;;
39074;SDS011;24826;52.070;20.970;2023-03-14T04:32:30;7.80;;;4.03;;
39074;SDS011;24826;52.070;20.970;2023-03-14T04:35:14;6.88;;;3.70;;
39074;SDS011;24826;52.070;20.970;2023-03-14T04:37:59;8.93;;;3.70;;
39074;SDS011;24826;52.070;20.970;2023-03-14T04:40:44;8.13;;;3.97;;
39074;SDS011;24826;52.070;20.970;2023-03-14T04:43:28;9.10;;;4.28;;
39074;SDS011;24826;52.070;20.970;2023-03-14T04:46:13;14.10;;;4.70;;
39074;SDS011;24826;52.070;20.970;2023-03-14T04:48:57;9.40;;;4.38;;
39074;SDS011;24826;52.070;20.970;2023-03-14T04:51:42;8.18;;;3.85;;
39074;SDS011;24826;52.070;20.970;2023-03-14T04:54:26;7.63;;;3.85;;
39074;SDS011;24826;52.070;20.970;2023-03-14T04:57:10;6.93;;;4.18;;
39074;SDS011;24826;52.070;20.970;2023-03-14T04:59:55;8.45;;;3.88;;
39074;SDS011;24826;52.070;20.970;2023-03-14T05:02:39;7.65;;;4.07;;
39074;SDS011;24826;52.070;20.970;2023-03-14T05:05:24;7.53;;;3.70;;
39074;SDS011;24826;52.070;20.970;2023-03-14T05:08:09;8.00;;;3.70;;
39074;SDS011;24826;52.070;20.970;2023-03-14T05:10:54;9.57;;;4.30;;
39074;SDS011;24826;52.070;20.970;2023-03-14T05:13:39;7.45;;;4.05;;
39074;SDS011;24826;52.070;20.970;2023-03-14T05:16:24;7.85;;;3.38;;
39074;SDS011;24826;52.070;20.970;2023-03-14T05:19:08;7.32;;;3.40;;
39074;SDS011;24826;52.070;20.970;2023-03-14T05:21:54;7.50;;;3.67;;
39074;SDS011;24826;52.070;20.970;2023-03-14T05:24:38;6.65;;;3.47;;
39074;SDS011;24826;52.070;20.970;2023-03-14T05:27:22;8.50;;;4.15;;
39074;SDS011;24826;52.070;20.970;2023-03-14T05:30:07;7.03;;;3.63;;
39074;SDS011;24826;52.070;20.970;2023-03-14T05:32:52;8.63;;;3.35;;
39074;SDS011;24826;52.070;20.970;2023-03-14T05:35:36;8.27;;;3.95;;
39074;SDS011;24826;52.070;20.970;2023-03-14T05:38:21;7.88;;;3.65;;
39074;SDS011;24826;52.070;20.970;2023-03-14T05:41:06;10.43;;;3.70;;
39074;SDS011;24826;52.070;20.970;2023-03-14T05:43:50;9.30;;;3.70;;
39074;SDS011;24826;52.070;20.970;2023-03-14T05:46:34;6.10;;;3.80;;
39074;SDS011;24826;52.070;20.970;2023-03-14T05:49:19;6.22;;;3.38;;
39074;SDS011;24826;52.070;20.970;2023-03-14T05:52:04;8.25;;;4.25;;
39074;SDS011;24826;52.070;20.970;2023-03-14T05:54:48;7.88;;;3.78;;
39074;SDS011;24826;52.070;20.970;2023-03-14T05:57:33;9.70;;;3.63;;
39074;SDS011;24826;52.070;20.970;2023-03-14T06:00:18;6.75;;;3.47;;
39074;SDS011;24826;52.070;20.970;2023-03-14T06:03:02;7.38;;;4.00;;
39074;SDS011;24826;52.070;20.970;2023-03-14T06:05:49;8.25;;;3.88;;
39074;SDS011;24826;52.070;20.970;2023-03-14T06:08:33;9.63;;;3.58;;
39074;SDS011;24826;52.070;20.970;2023-03-14T06:11:18;6.75;;;3.78;;
39074;SDS011;24826;52.070;20.970;2023-03-14T06:14:02;7.30;;;3.78;;
39074;SDS011;24826;52.070;20.970;2023-03-14T06:16:47;9.20;;;3.97;;
39074;SDS011;24826;52.070;20.970;2023-03-14T06:19:33;7.43;;;3.70;;
39074;SDS011;24826;52.070;20.970;2023-03-14T06:22:17;7.25;;;3.45;;
39074;SDS011;24826;52.070;20.970;2023-03-14T06:25:03;7.70;;;3.63;;
39074;SDS011;24826;52.070;20.970;2023-03-14T06:27:48;7.13;;;4.07;;
39074;SDS011;24826;52.070;20.970;2023-03-14T06:30:33;6.78;;;3.58;;
39074;SDS011;24826;52.070;20.970;2023-03-14T06:33:17;6.72;;;3.88;;
39074;SDS011;24826;52.070;20.970;2023-03-14T06:36:02;8.98;;;3.50;;
39074;SDS011;24826;52.070;20.970;2023-03-14T06:38:46;9.65;;;3.70;;
39074;SDS011;24826;52.070;20.970;2023-03-14T06:41:31;7.70;;;3.65;;
39074;SDS011;24826;52.070;20.970;2023-03-14T06:44:16;8.38;;;4.10;;
39074;SDS011;24826;52.070;20.970;2023-03-14T06:47:01;9.63;;;4.10;;
39074;SDS011;24826;52.070;20.970;2023-03-14T06:49:46;7.70;;;3.90;;
39074;SDS011;24826;52.070;20.970;2023-03-14T06:52:30;6.68;;;3.45;;
39074;SDS011;24826;52.070;20.970;2023-03-14T06:55:15;6.25;;;3.30;;
39074;SDS011;24826;52.070;20.970;2023-03-14T06:57:59;5.60;;;3.13;;
39074;SDS011;24826;52.070;20.970;2023-03-14T07:00:44;6.68;;;3.33;;
39074;SDS011;24826;52.070;20.970;2023-03-14T07:03:29;7.35;;;3.15;;
39074;SDS011;24826;52.070;20.970;2023-03-14T07:06:14;7.88;;;3.80;;
39074;SDS011;24826;52.070;20.970;2023-03-14T07:08:58;8.68;;;3.60;;
39074;SDS011;24826;52.070;20.970;2023-03-14T07:11:43;6.03;;;3.20;;
39074;SDS011;24826;52.070;20.970;2023-03-14T07:14:27;6.95;;;3.38;;
39074;SDS011;24826;52.070;20.970;2023-03-14T07:17:12;6.70;;;3.85;;
39074;SDS011;24826;52.070;20.970;2023-03-14T07:19:56;5.32;;;3.13;;
39074;SDS011;24826;52.070;20.970;2023-03-14T07:22:41;6.22;;;3.22;;
39074;SDS011;24826;52.070;20.970;2023-03-14T07:25:25;6.93;;;3.10;;
39074;SDS011;24826;52.070;20.970;2023-03-14T07:28:10;6.13;;;3.15;;
39074;SDS011;24826;52.070;20.970;2023-03-14T07:30:54;6.80;;;3.08;;
39074;SDS011;24826;52.070;20.970;2023-03-14T07:33:39;7.32;;;3.35;;
39074;SDS011;24826;52.070;20.970;2023-03-14T07:36:23;7.53;;;3.20;;
39074;SDS011;24826;52.070;20.970;2023-03-14T07:39:08;6.18;;;3.30;;
39074;SDS011;24826;52.070;20.970;2023-03-14T07:41:53;5.65;;;3.17;;
39074;SDS011;24826;52.070;20.970;2023-03-14T07:44:37;6.43;;;3.33;;
39074;SDS011;24826;52.070;20.970;2023-03-14T07:47:21;5.45;;;3.25;;
39074;SDS011;24826;52.070;20.970;2023-03-14T07:50:06;6.32;;;3.53;;
39074;SDS011;24826;52.070;20.970;2023-03-14T07:52:51;6.95;;;3.13;;
39074;SDS011;24826;52.070;20.970;2023-03-14T07:55:36;6.53;;;3.38;;
39074;SDS011;24826;52.070;20.970;2023-03-14T07:58:20;7.35;;;3.65;;
39074;SDS011;24826;52.070;20.970;2023-03-14T08:01:08;6.65;;;3.10;;
39074;SDS011;24826;52.070;20.970;2023-03-14T08:03:53;6.88;;;3.53;;
39074;SDS011;24826;52.070;20.970;2023-03-14T08:06:38;6.65;;;3.33;;
39074;SDS011;24826;52.070;20.970;2023-03-14T08:09:22;5.72;;;3.38;;
39074;SDS011;24826;52.070;20.970;2023-03-14T08:12:06;4.70;;;2.75;;
39074;SDS011;24826;52.070;20.970;2023-03-14T08:14:50;9.65;;;4.65;;
39074;SDS011;24826;52.070;20.970;2023-03-14T08:17:34;8.57;;;4.00;;
39074;SDS011;24826;52.070;20.970;2023-03-14T08:20:20;6.43;;;3.22;;
39074;SDS011;24826;52.070;20.970;2023-03-14T08:23:05;7.70;;;3.47;;
39074;SDS011;24826;52.070;20.970;2023-03-14T08:25:50;7.72;;;3.67;;
39074;SDS011;24826;52.070;20.970;2023-03-14T08:28:35;7.22;;;3.42;;
39074;SDS011;24826;52.070;20.970;2023-03-14T08:31:19;7.25;;;3.35;;
39074;SDS011;24826;52.070;20.970;2023-03-14T08:34:04;6.53;;;3.38;;
39074;SDS011;24826;52.070;20.970;2023-03-14T08:36:52;7.20;;;3.65;;
39074;SDS011;24826;52.070;20.970;2023-03-14T08:39:37;8.18;;;4.28;;
39074;SDS011;24826;52.070;20.970;2023-03-14T08:42:21;6.35;;;3.30;;
39074;SDS011;24826;52.070;20.970;2023-03-14T08:45:06;9.02;;;3.53;;
39074;SDS011;24826;52.070;20.970;2023-03-14T08:47:52;6.80;;;3.33;;
39074;SDS011;24826;52.070;20.970;2023-03-14T08:50:36;10.23;;;3.35;;
39074;SDS011;24826;52.070;20.970;2023-03-14T08:53:20;11.65;;;3.67;;
39074;SDS011;24826;52.070;20.970;2023-03-14T08:56:06;6.47;;;3.30;;
39074;SDS011;24826;52.070;20.970;2023-03-14T08:58:54;7.70;;;2.80;;
39074;SDS011;24826;52.070;20.970;2023-03-14T09:01:38;6.60;;;3.42;;
39074;SDS011;24826;52.070;20.970;2023-03-14T09:04:22;5.53;;;2.97;;
39074;SDS011;24826;52.070;20.970;2023-03-14T09:07:07;6.95;;;3.22;;
39074;SDS011;24826;52.070;20.970;2023-03-14T09:09:51;5.28;;;2.88;;
39074;SDS011;24826;52.070;20.970;2023-03-14T09:12:36;7.97;;;3.50;;
39074;SDS011;24826;52.070;20.970;2023-03-14T09:15:20;6.03;;;2.88;;
39074;SDS011;24826;52.070;20.970;2023-03-14T09:18:05;7.13;;;3.10;;
39074;SDS011;24826;52.070;20.970;2023-03-14T09:20:49;7.20;;;2.92;;
39074;SDS011;24826;52.070;20.970;2023-03-14T09:23:34;5.65;;;3.17;;
39074;SDS011;24826;52.070;20.970;2023-03-14T09:26:18;7.38;;;3.50;;
39074;SDS011;24826;52.070;20.970;2023-03-14T09:29:03;6.30;;;3.10;;
39074;SDS011;24826;52.070;20.970;2023-03-14T09:31:47;7.60;;;3.30;;
39074;SDS011;24826;52.070;20.970;2023-03-14T09:34:32;7.38;;;3.22;;
39074;SDS011;24826;52.070;20.970;2023-03-14T09:37:16;7.28;;;3.50;;
39074;SDS011;24826;52.070;20.970;2023-03-14T09:40:01;7.55;;;3.20;;
39074;SDS011;24826;52.070;20.970;2023-03-14T09:45:38;9.68;;;3.10;;
39074;SDS011;24826;52.070;20.970;2023-03-14T09:48:26;6.88;;;2.70;;
39074;SDS011;24826;52.070;20.970;2023-03-14T09:51:14;8.57;;;2.75;;
39074;SDS011;24826;52.070;20.970;2023-03-14T09:54:02;6.15;;;2.72;;
39074;SDS011;24826;52.070;20.970;2023-03-14T09:56:48;6.15;;;3.00;;
39074;SDS011;24826;52.070;20.970;2023-03-14T09:59:33;6.07;;;2.58;;
39074;SDS011;24826;52.070;20.970;2023-03-14T10:02:21;7.03;;;2.90;;
39074;SDS011;24826;52.070;20.970;2023-03-14T10:05:16;5.35;;;2.50;;
39074;SDS011;24826;52.070;20.970;2023-03-14T10:08:03;7.75;;;2.85;;
39074;SDS011;24826;52.070;20.970;2023-03-14T10:10:48;7.55;;;2.80;;
39074;SDS011;24826;52.070;20.970;2023-03-14T10:13:32;5.90;;;2.38;;
39074;SDS011;24826;52.070;20.970;2023-03-14T10:16:16;6.63;;;2.67;;
39074;SDS011;24826;52.070;20.970;2023-03-14T10:19:05;5.63;;;2.63;;
39074;SDS011;24826;52.070;20.970;2023-03-14T10:21:53;6.00;;;2.50;;
39074;SDS011;24826;52.070;20.970;2023-03-14T10:24:38;9.70;;;3.00;;
39074;SDS011;24826;52.070;20.970;2023-03-14T10:27:31;6.82;;;2.58;;
39074;SDS011;24826;52.070;20.970;2023-03-14T10:30:33;5.43;;;2.67;;
39074;SDS011;24826;52.070;20.970;2023-03-14T10:33:31;5.47;;;2.45;;
39074;SDS011;24826;52.070;20.970;2023-03-14T10:36:21;7.50;;;2.78;;
39074;SDS011;24826;52.070;20.970;2023-03-14T10:39:29;8.25;;;2.50;;
39074;SDS011;24826;52.070;20.970;2023-03-14T10:42:24;6.28;;;2.58;;
39074;SDS011;24826;52.070;20.970;2023-03-14T10:45:35;5.95;;;3.00;;
39074;SDS011;24826;52.070;20.970;2023-03-14T10:48:23;8.27;;;3.03;;
39074;SDS011;24826;52.070;20.970;2023-03-14T10:54:03;9.52;;;3.20;;
39074;SDS011;24826;52.070;20.970;2023-03-14T10:56:57;6.15;;;2.83;;
39074;SDS011;24826;52.070;20.970;2023-03-14T10:59:45;5.38;;;2.90;;
39074;SDS011;24826;52.070;20.970;2023-03-14T11:05:39;7.40;;;2.97;;
39074;SDS011;24826;52.070;20.970;2023-03-14T11:08:50;6.75;;;3.47;;
39074;SDS011;24826;52.070;20.970;2023-03-14T11:11:53;7.85;;;2.83;;
39074;SDS011;24826;52.070;20.970;2023-03-14T11:14:46;9.38;;;3.13;;
39074;SDS011;24826;52.070;20.970;2023-03-14T11:17:39;7.65;;;2.90;;
39074;SDS011;24826;52.070;20.970;2023-03-14T11:20:33;8.55;;;3.00;;
39074;SDS011;24826;52.070;20.970;2023-03-14T11:29:21;5.65;;;2.88;;
39074;SDS011;24826;52.070;20.970;2023-03-14T11:32:35;7.25;;;2.95;;
39074;SDS011;24826;52.070;20.970;2023-03-14T11:35:24;8.80;;;3.35;;
39074;SDS011;24826;52.070;20.970;2023-03-14T11:41:11;8.35;;;2.70;;
39074;SDS011;24826;52.070;20.970;2023-03-14T11:44:01;6.75;;;3.33;;
39074;SDS011;24826;52.070;20.970;2023-03-14T11:50:02;6.90;;;3.13;;
39074;SDS011;24826;52.070;20.970;2023-03-14T11:52:58;7.88;;;3.58;;
39074;SDS011;24826;52.070;20.970;2023-03-14T11:55:48;7.18;;;3.92;;
39074;SDS011;24826;52.070;20.970;2023-03-14T11:58:34;7.10;;;3.40;;
39074;SDS011;24826;52.070;20.970;2023-03-14T12:01:22;10.02;;;3.60;;
39074;SDS011;24826;52.070;20.970;2023-03-14T12:04:21;7.88;;;4.00;;
39074;SDS011;24826;52.070;20.970;2023-03-14T12:10:52;14.80;;;4.30;;
39074;SDS011;24826;52.070;20.970;2023-03-14T12:13:39;9.13;;;3.95;;
39074;SDS011;24826;52.070;20.970;2023-03-14T12:16:31;9.23;;;4.25;;
39074;SDS011;24826;52.070;20.970;2023-03-14T12:25:13;10.55;;;4.18;;
39074;SDS011;24826;52.070;20.970;2023-03-14T12:28:03;11.35;;;4.38;;
39074;SDS011;24826;52.070;20.970;2023-03-14T12:37:02;7.68;;;3.97;;
39074;SDS011;24826;52.070;20.970;2023-03-14T12:40:13;9.15;;;4.05;;
39074;SDS011;24826;52.070;20.970;2023-03-14T12:43:03;8.88;;;4.18;;
39074;SDS011;24826;52.070;20.970;2023-03-14T12:46:29;7.32;;;3.58;;
39074;SDS011;24826;52.070;20.970;2023-03-14T12:49:13;12.20;;;4.13;;
39074;SDS011;24826;52.070;20.970;2023-03-14T12:52:00;11.15;;;4.35;;
39074;SDS011;24826;52.070;20.970;2023-03-14T12:57:59;9.32;;;4.50;;
39074;SDS011;24826;52.070;20.970;2023-03-14T13:01:15;9.63;;;4.40;;
39074;SDS011;24826;52.070;20.970;2023-03-14T13:04:07;10.55;;;4.63;;
39074;SDS011;24826;52.070;20.970;2023-03-14T13:06:55;10.60;;;4.95;;
39074;SDS011;24826;52.070;20.970;2023-03-14T13:10:03;10.10;;;4.90;;
39074;SDS011;24826;52.070;20.970;2023-03-14T13:13:03;7.70;;;4.03;;
39074;SDS011;24826;52.070;20.970;2023-03-14T13:16:00;12.80;;;4.55;;
39074;SDS011;24826;52.070;20.970;2023-03-14T13:18:49;8.50;;;3.90;;
39074;SDS011;24826;52.070;20.970;2023-03-14T13:21:35;8.63;;;3.80;;
39074;SDS011;24826;52.070;20.970;2023-03-14T13:24:25;10.85;;;4.20;;
39074;SDS011;24826;52.070;20.970;2023-03-14T13:27:18;9.40;;;4.07;;
39074;SDS011;24826;52.070;20.970;2023-03-14T13:33:03;9.38;;;4.30;;
39074;SDS011;24826;52.070;20.970;2023-03-14T13:35:53;10.55;;;4.80;;
39074;SDS011;24826;52.070;20.970;2023-03-14T13:38:42;9.07;;;4.55;;
39074;SDS011;24826;52.070;20.970;2023-03-14T13:41:27;9.88;;;4.53;;
39074;SDS011;24826;52.070;20.970;2023-03-14T13:47:13;7.78;;;4.00;;
39074;SDS011;24826;52.070;20.970;2023-03-14T13:50:00;11.98;;;4.30;;
39074;SDS011;24826;52.070;20.970;2023-03-14T13:52:44;8.95;;;4.00;;
39074;SDS011;24826;52.070;20.970;2023-03-14T13:55:30;7.03;;;4.28;;
39074;SDS011;24826;52.070;20.970;2023-03-14T13:58:24;9.70;;;4.47;;
39074;SDS011;24826;52.070;20.970;2023-03-14T14:01:15;9.88;;;4.35;;
39074;SDS011;24826;52.070;20.970;2023-03-14T14:06:54;8.25;;;3.63;;
39074;SDS011;24826;52.070;20.970;2023-03-14T14:15:21;8.73;;;3.67;;
39074;SDS011;24826;52.070;20.970;2023-03-14T14:18:12;8.13;;;4.32;;
39074;SDS011;24826;52.070;20.970;2023-03-14T14:21:00;9.13;;;4.55;;
39074;SDS011;24826;52.070;20.970;2023-03-14T14:23:47;7.35;;;4.03;;
39074;SDS011;24826;52.070;20.970;2023-03-14T14:26:32;8.15;;;4.18;;
39074;SDS011;24826;52.070;20.970;2023-03-14T14:29:25;7.38;;;4.55;;
39074;SDS011;24826;52.070;20.970;2023-03-14T14:32:12;9.95;;;4.50;;
39074;SDS011;24826;52.070;20.970;2023-03-14T14:34:58;8.30;;;4.30;;
39074;SDS011;24826;52.070;20.970;2023-03-14T14:37:43;9.25;;;4.18;;
39074;SDS011;24826;52.070;20.970;2023-03-14T14:40:29;7.68;;;4.47;;
39074;SDS011;24826;52.070;20.970;2023-03-14T14:43:26;9.65;;;4.57;;
39074;SDS011;24826;52.070;20.970;2023-03-14T14:46:15;7.78;;;4.32;;
39074;SDS011;24826;52.070;20.970;2023-03-14T14:49:03;9.65;;;4.32;;
39074;SDS011;24826;52.070;20.970;2023-03-14T14:51:59;9.68;;;5.20;;
39074;SDS011;24826;52.070;20.970;2023-03-14T14:57:37;8.52;;;4.93;;
39074;SDS011;24826;52.070;20.970;2023-03-14T15:00:24;12.82;;;5.28;;
39074;SDS011;24826;52.070;20.970;2023-03-14T15:03:12;10.60;;;4.60;;
39074;SDS011;24826;52.070;20.970;2023-03-14T15:05:59;9.50;;;4.65;;
39074;SDS011;24826;52.070;20.970;2023-03-14T15:08:44;8.40;;;4.80;;
39074;SDS011;24826;52.070;20.970;2023-03-14T15:11:30;10.48;;;4.95;;
39074;SDS011;24826;52.070;20.970;2023-03-14T15:14:14;8.85;;;5.22;;
39074;SDS011;24826;52.070;20.970;2023-03-14T15:16:59;9.88;;;5.00;;
39074;SDS011;24826;52.070;20.970;2023-03-14T15:19:43;8.48;;;4.85;;
39074;SDS011;24826;52.070;20.970;2023-03-14T15:22:28;12.38;;;5.82;;
39074;SDS011;24826;52.070;20.970;2023-03-14T15:25:12;9.88;;;5.25;;
39074;SDS011;24826;52.070;20.970;2023-03-14T15:27:57;10.68;;;5.80;;
39074;SDS011;24826;52.070;20.970;2023-03-14T15:30:42;12.82;;;5.90;;
39074;SDS011;24826;52.070;20.970;2023-03-14T15:33:26;11.10;;;5.43;;
39074;SDS011;24826;52.070;20.970;2023-03-14T15:36:17;15.68;;;6.28;;
39074;SDS011;24826;52.070;20.970;2023-03-14T15:39:06;12.40;;;6.80;;
39074;SDS011;24826;52.070;20.970;2023-03-14T15:41:51;12.93;;;6.40;;
39074;SDS011;24826;52.070;20.970;2023-03-14T15:44:35;13.20;;;7.35;;
39074;SDS011;24826;52.070;20.970;2023-03-14T15:47:20;13.65;;;7.38;;
39074;SDS011;24826;52.070;20.970;2023-03-14T15:50:05;13.88;;;7.43;;
39074;SDS011;24826;52.070;20.970;2023-03-14T15:52:53;16.30;;;8.05;;
39074;SDS011;24826;52.070;20.970;2023-03-14T15:55:39;12.27;;;7.20;;
39074;SDS011;24826;52.070;20.970;2023-03-14T15:58:24;14.57;;;7.38;;
39074;SDS011;24826;52.070;20.970;2023-03-14T16:01:08;14.32;;;7.25;;
39074;SDS011;24826;52.070;20.970;2023-03-14T16:03:53;12.00;;;6.40;;
39074;SDS011;24826;52.070;20.970;2023-03-14T16:06:37;11.30;;;6.70;;
39074;SDS011;24826;52.070;20.970;2023-03-14T16:09:22;12.80;;;6.85;;
39074;SDS011;24826;52.070;20.970;2023-03-14T16:12:07;13.98;;;7.05;;
39074;SDS011;24826;52.070;20.970;2023-03-14T16:14:52;12.88;;;6.43;;
39074;SDS011;24826;52.070;20.970;2023-03-14T16:17:37;11.55;;;6.95;;
39074;SDS011;24826;52.070;20.970;2023-03-14T16:20:24;11.93;;;6.85;;
39074;SDS011;24826;52.070;20.970;2023-03-14T16:23:09;12.70;;;7.30;;
39074;SDS011;24826;52.070;20.970;2023-03-14T16:25:55;10.95;;;6.20;;
39074;SDS011;24826;52.070;20.970;2023-03-14T16:28:39;14.05;;;6.78;;
39074;SDS011;24826;52.070;20.970;2023-03-14T16:31:24;11.25;;;6.60;;
39074;SDS011;24826;52.070;20.970;2023-03-14T16:34:09;13.55;;;6.80;;
39074;SDS011;24826;52.070;20.970;2023-03-14T16:36:54;11.48;;;6.90;;
39074;SDS011;24826;52.070;20.970;2023-03-14T16:39:38;13.75;;;6.88;;
39074;SDS011;24826;52.070;20.970;2023-03-14T16:42:24;14.48;;;6.60;;
39074;SDS011;24826;52.070;20.970;2023-03-14T16:45:09;14.68;;;7.07;;
39074;SDS011;24826;52.070;20.970;2023-03-14T16:47:57;12.95;;;6.82;;
39074;SDS011;24826;52.070;20.970;2023-03-14T16:50:41;12.00;;;7.03;;
39074;SDS011;24826;52.070;20.970;2023-03-14T16:53:26;14.15;;;8.05;;
39074;SDS011;24826;52.070;20.970;2023-03-14T16:56:13;12.98;;;7.97;;
39074;SDS011;24826;52.070;20.970;2023-03-14T16:58:58;16.75;;;8.52;;
39074;SDS011;24826;52.070;20.970;2023-03-14T17:01:45;13.80;;;8.43;;
39074;SDS011;24826;52.070;20.970;2023-03-14T17:04:30;17.60;;;9.85;;
39074;SDS011;24826;52.070;20.970;2023-03-14T17:07:15;13.10;;;8.43;;
39074;SDS011;24826;52.070;20.970;2023-03-14T17:09:59;16.05;;;9.05;;
39074;SDS011;24826;52.070;20.970;2023-03-14T17:12:44;16.83;;;9.77;;
39074;SDS011;24826;52.070;20.970;2023-03-14T17:15:29;14.52;;;8.98;;
39074;SDS011;24826;52.070;20.970;2023-03-14T17:18:13;17.48;;;9.25;;
39074;SDS011;24826;52.070;20.970;2023-03-14T17:20:58;14.60;;;8.98;;
39074;SDS011;24826;52.070;20.970;2023-03-14T17:23:43;14.55;;;9.38;;
39074;SDS011;24826;52.070;20.970;2023-03-14T17:26:28;14.20;;;8.55;;
39074;SDS011;24826;52.070;20.970;2023-03-14T17:29:12;14.18;;;8.43;;